createdAt,value
2023-03-19T00:01:49.247Z,8.50
2023-03-19T00:04:17.261Z,8.54
2023-03-19T00:06:44.156Z,8.46
2023-03-19T00:09:11.492Z,8.38
2023-03-19T00:11:38.215Z,8.31
2023-03-19T00:14:05.992Z,8.21
2023-03-19T00:16:33.127Z,8.15
2023-03-19T00:18:59.983Z,8.05
2023-03-19T00:21:27.167Z,8.01
2023-03-19T00:23:54.398Z,7.98
2023-03-19T00:26:20.924Z,7.94
2023-03-19T00:28:47.368Z,8.00
2023-03-19T00:31:16.584Z,8.01
2023-03-19T00:33:43.228Z,8.02
2023-03-19T00:36:10.948Z,8.24
2023-03-19T00:38:37.442Z,8.14
2023-03-19T00:41:05.249Z,8.16
2023-03-19T00:43:32.201Z,8.40
2023-03-19T00:45:58.944Z,8.32
2023-03-19T00:48:25.593Z,8.31
2023-03-19T00:50:52.101Z,8.31
2023-03-19T00:53:18.926Z,8.21
2023-03-19T00:55:46.215Z,8.07
2023-03-19T00:58:13.284Z,7.88
2023-03-19T01:00:40.013Z,7.71
2023-03-19T01:03:06.798Z,7.68
2023-03-19T01:05:36.283Z,7.75
2023-03-19T01:08:03.124Z,7.77
2023-03-19T01:10:29.710Z,7.73
2023-03-19T01:12:56.937Z,7.78
2023-03-19T01:15:23.483Z,7.77
2023-03-19T01:17:50.082Z,7.64
2023-03-19T01:20:18.871Z,7.74
2023-03-19T01:22:45.845Z,7.71
2023-03-19T01:25:13.835Z,7.56
2023-03-19T01:27:40.391Z,7.29
2023-03-19T01:30:07.709Z,7.20
2023-03-19T01:32:34.189Z,7.00
2023-03-19T01:35:01.228Z,6.85
2023-03-19T01:37:28.247Z,6.76
2023-03-19T01:39:54.862Z,6.65
2023-03-19T01:42:21.525Z,6.60
2023-03-19T01:44:48.070Z,6.65
2023-03-19T01:47:18.349Z,6.53
2023-03-19T01:49:47.918Z,6.49
2023-03-19T01:52:15.168Z,6.47
2023-03-19T01:54:41.777Z,6.45
2023-03-19T01:57:11.796Z,6.38
2023-03-19T01:59:42.184Z,6.35
2023-03-19T02:02:30.507Z,6.32
2023-03-19T02:05:01.645Z,6.39
2023-03-19T02:07:33.184Z,6.42
2023-03-19T02:10:01.422Z,6.41
2023-03-19T02:12:28.113Z,6.32
2023-03-19T02:14:55.073Z,6.29
2023-03-19T02:17:22.131Z,6.36
2023-03-19T02:20:02.410Z,6.28
2023-03-19T02:22:30.409Z,6.26
2023-03-19T02:25:02.214Z,6.30
2023-03-19T02:27:29.178Z,6.28
2023-03-19T02:29:56.078Z,6.29
2023-03-19T02:32:22.959Z,6.32
2023-03-19T02:34:49.837Z,6.26
2023-03-19T02:37:26.482Z,6.34
2023-03-19T02:39:59.555Z,6.33
2023-03-19T02:42:28.485Z,6.40
2023-03-19T02:44:55.049Z,6.38
2023-03-19T02:47:21.649Z,6.58
2023-03-19T02:49:48.455Z,6.63
2023-03-19T02:52:15.107Z,6.63
2023-03-19T02:54:41.894Z,6.56
2023-03-19T02:57:08.648Z,6.52
2023-03-19T02:59:35.772Z,6.56
2023-03-19T03:02:02.300Z,6.50
2023-03-19T03:04:29.218Z,6.42
2023-03-19T03:06:55.723Z,6.41
2023-03-19T03:09:22.670Z,6.45
2023-03-19T03:11:49.445Z,6.47
2023-03-19T03:14:15.931Z,6.46
2023-03-19T03:16:42.552Z,6.37
2023-03-19T03:19:09.277Z,6.40
2023-03-19T03:21:36.223Z,6.49
2023-03-19T03:24:02.978Z,6.71
2023-03-19T03:26:29.938Z,6.78
2023-03-19T03:28:56.454Z,6.69
2023-03-19T03:31:23.316Z,6.51
2023-03-19T03:33:50.331Z,6.62
2023-03-19T03:36:17.544Z,6.60
2023-03-19T03:38:45.203Z,6.50
2023-03-19T03:41:11.677Z,6.53
2023-03-19T03:43:38.196Z,6.86
2023-03-19T03:46:05.147Z,7.02
2023-03-19T03:48:31.694Z,7.06
2023-03-19T03:50:58.277Z,7.10
2023-03-19T03:53:24.958Z,7.13
2023-03-19T03:55:51.601Z,7.03
2023-03-19T03:58:18.148Z,7.07
2023-03-19T04:00:44.602Z,6.96
2023-03-19T04:03:11.105Z,6.77
2023-03-19T04:05:38.427Z,6.66
2023-03-19T04:08:05.353Z,6.67
2023-03-19T04:10:32.457Z,6.81
2023-03-19T04:12:59.367Z,6.94
2023-03-19T04:15:25.832Z,7.03
2023-03-19T04:17:52.334Z,7.03
2023-03-19T04:20:19.208Z,6.90
2023-03-19T04:22:45.769Z,6.93
2023-03-19T04:25:12.284Z,7.12
2023-03-19T04:27:38.708Z,7.22
2023-03-19T04:30:05.936Z,7.20
2023-03-19T04:32:33.632Z,7.19
2023-03-19T04:35:00.369Z,7.18
2023-03-19T04:37:27.121Z,7.17
2023-03-19T04:39:54.491Z,7.29
2023-03-19T04:42:21.532Z,7.27
2023-03-19T04:44:48.657Z,7.34
2023-03-19T04:47:15.370Z,7.30
2023-03-19T04:49:42.368Z,7.41
2023-03-19T04:52:09.413Z,7.29
2023-03-19T04:54:35.803Z,7.32
2023-03-19T04:57:02.358Z,7.32
2023-03-19T04:59:28.865Z,7.23
2023-03-19T05:01:55.656Z,7.05
2023-03-19T05:04:23.985Z,6.85
2023-03-19T05:06:50.512Z,6.82
2023-03-19T05:09:17.140Z,6.57
2023-03-19T05:11:43.804Z,6.54
2023-03-19T05:14:10.267Z,6.38
2023-03-19T05:16:37.158Z,6.25
2023-03-19T05:19:03.671Z,6.13
2023-03-19T05:21:30.294Z,6.07
2023-03-19T05:23:57.221Z,5.93
2023-03-19T05:26:23.998Z,5.87
2023-03-19T05:28:50.626Z,5.85
2023-03-19T05:31:17.358Z,5.92
2023-03-19T05:33:43.949Z,5.92
2023-03-19T05:36:10.623Z,5.86
2023-03-19T05:38:37.003Z,5.86
2023-03-19T05:41:07.394Z,5.94
2023-03-19T05:43:34.131Z,6.00
2023-03-19T05:46:00.700Z,6.08
2023-03-19T05:48:27.395Z,6.14
2023-03-19T05:50:54.414Z,6.16
2023-03-19T05:53:21.537Z,6.17
2023-03-19T05:55:47.965Z,6.28
2023-03-19T05:58:15.393Z,6.34
2023-03-19T06:00:42.264Z,6.51
2023-03-19T06:03:08.843Z,6.86
2023-03-19T06:05:36.242Z,7.17
2023-03-19T06:08:02.670Z,7.43
2023-03-19T06:10:29.096Z,7.58
2023-03-19T06:12:55.981Z,7.76
2023-03-19T06:15:22.412Z,7.91
2023-03-19T06:17:48.915Z,8.10
2023-03-19T06:20:15.426Z,8.06
2023-03-19T06:22:43.613Z,8.13
2023-03-19T06:25:10.310Z,8.25
2023-03-19T06:27:36.932Z,8.35
2023-03-19T06:30:03.776Z,8.66
2023-03-19T06:32:30.390Z,8.90
2023-03-19T06:34:57.128Z,9.37
2023-03-19T06:37:23.858Z,9.87
2023-03-19T06:39:51.078Z,10.26
2023-03-19T06:42:17.586Z,10.73
2023-03-19T06:44:44.148Z,10.66
2023-03-19T06:47:10.953Z,10.94
2023-03-19T06:49:37.394Z,11.07
2023-03-19T06:52:04.456Z,11.31
2023-03-19T06:54:31.278Z,11.54
2023-03-19T06:56:58.088Z,11.65
2023-03-19T06:59:25.291Z,12.29
2023-03-19T07:01:52.593Z,11.96
2023-03-19T07:04:19.489Z,12.19
2023-03-19T07:06:46.437Z,12.04
2023-03-19T07:09:13.139Z,12.52
2023-03-19T07:11:39.825Z,13.03
2023-03-19T07:14:06.295Z,13.24
2023-03-19T07:16:33.210Z,13.18
2023-03-19T07:18:59.745Z,13.10
2023-03-19T07:21:26.333Z,12.49
2023-03-19T07:23:52.938Z,12.99
2023-03-19T07:26:19.916Z,13.20
2023-03-19T07:28:46.714Z,13.11
2023-03-19T07:31:13.395Z,12.09
2023-03-19T07:33:40.080Z,11.84
2023-03-19T07:36:07.251Z,11.52
2023-03-19T07:38:33.788Z,11.34
2023-03-19T07:41:02.790Z,11.10
2023-03-19T07:43:30.209Z,11.02
2023-03-19T07:45:58.601Z,11.56
2023-03-19T07:48:25.269Z,11.60
2023-03-19T07:50:51.954Z,11.64
2023-03-19T07:53:18.763Z,11.93
2023-03-19T07:55:45.633Z,12.13
2023-03-19T07:58:13.422Z,12.31
2023-03-19T08:00:39.987Z,12.28
2023-03-19T08:03:06.619Z,12.38
2023-03-19T08:05:33.577Z,12.21
2023-03-19T08:07:59.958Z,12.28
2023-03-19T08:10:27.266Z,12.68
2023-03-19T08:12:54.221Z,13.01
2023-03-19T08:15:21.374Z,13.05
2023-03-19T08:17:49.094Z,13.12
2023-03-19T08:20:18.933Z,13.22
2023-03-19T08:22:49.246Z,13.52
2023-03-19T08:25:15.792Z,14.01
2023-03-19T08:27:42.800Z,14.20
2023-03-19T08:30:11.790Z,13.97
2023-03-19T08:32:38.345Z,13.90
2023-03-19T08:35:06.250Z,13.88
2023-03-19T08:37:32.821Z,14.70
2023-03-19T08:39:59.797Z,14.96
2023-03-19T08:42:26.313Z,15.11
2023-03-19T08:44:52.734Z,14.69
2023-03-19T08:47:24.241Z,15.09
2023-03-19T08:49:51.861Z,14.93
2023-03-19T08:52:19.384Z,14.75
2023-03-19T08:54:45.987Z,14.69
2023-03-19T08:57:12.605Z,14.06
2023-03-19T08:59:39.092Z,13.72
2023-03-19T09:02:05.769Z,13.85
2023-03-19T09:04:36.718Z,13.59
2023-03-19T09:07:03.337Z,13.96
2023-03-19T09:09:30.241Z,13.74
2023-03-19T09:11:56.859Z,13.54
2023-03-19T09:14:23.415Z,13.98
2023-03-19T09:16:49.904Z,14.41
2023-03-19T09:19:17.373Z,14.60
2023-03-19T09:21:44.971Z,14.18
2023-03-19T09:24:11.546Z,13.91
2023-03-19T09:26:38.080Z,14.17
2023-03-19T09:29:05.023Z,14.58
2023-03-19T09:31:31.745Z,14.94
2023-03-19T09:33:58.465Z,14.57
2023-03-19T09:36:25.550Z,14.60
2023-03-19T09:38:52.468Z,14.70
2023-03-19T09:41:31.447Z,14.57
2023-03-19T09:44:10.683Z,15.09
2023-03-19T09:46:46.242Z,15.68
2023-03-19T09:49:34.289Z,15.78
2023-03-19T09:52:22.397Z,15.69
2023-03-19T09:54:52.661Z,15.60
2023-03-19T09:57:19.845Z,15.79
2023-03-19T09:59:47.729Z,15.72
2023-03-19T10:02:29.463Z,15.67
2023-03-19T10:05:26.677Z,15.75
2023-03-19T10:08:11.882Z,16.32
2023-03-19T10:10:49.541Z,16.37
2023-03-19T10:13:39.616Z,16.59
2023-03-19T10:16:12.782Z,16.59
2023-03-19T10:18:45.898Z,17.06
2023-03-19T10:21:34.275Z,17.96
2023-03-19T10:24:12.551Z,18.67
2023-03-19T10:26:39.018Z,18.44
2023-03-19T10:29:15.827Z,18.66
2023-03-19T10:32:05.701Z,19.31
2023-03-19T10:34:36.388Z,20.51
2023-03-19T10:37:15.278Z,21.48
2023-03-19T10:39:44.319Z,20.43
2023-03-19T10:42:36.350Z,21.39
2023-03-19T10:45:11.303Z,20.79
2023-03-19T10:47:40.424Z,22.03
2023-03-19T10:50:10.658Z,21.29
2023-03-19T10:52:38.018Z,20.71
2023-03-19T10:55:33.687Z,22.11
2023-03-19T10:58:16.278Z,21.28
2023-03-19T11:00:46.687Z,20.02
2023-03-19T11:03:32.436Z,19.44
2023-03-19T11:06:33.042Z,19.46
2023-03-19T11:09:08.666Z,19.04
2023-03-19T11:11:45.128Z,18.63
2023-03-19T11:14:18.576Z,19.90
2023-03-19T11:16:51.138Z,20.62
2023-03-19T11:19:41.462Z,19.86
2023-03-19T11:22:19.627Z,19.69
2023-03-19T11:24:53.670Z,18.73
2023-03-19T11:27:29.700Z,18.62
2023-03-19T11:29:56.281Z,18.44
2023-03-19T11:32:59.887Z,19.26
2023-03-19T11:35:38.044Z,19.14
2023-03-19T11:38:14.306Z,19.40
2023-03-19T11:40:47.815Z,19.78
2023-03-19T11:43:29.586Z,19.32
2023-03-19T11:46:18.341Z,20.10
2023-03-19T11:48:50.882Z,20.15
2023-03-19T11:51:38.855Z,19.98
2023-03-19T11:54:28.408Z,19.91
2023-03-19T11:57:00.119Z,20.19
2023-03-19T11:59:30.318Z,20.80
2023-03-19T12:02:16.797Z,20.64
2023-03-19T12:05:10.041Z,19.93
2023-03-19T12:08:08.093Z,19.71
2023-03-19T12:10:43.714Z,20.19
2023-03-19T12:13:37.679Z,19.70
2023-03-19T12:16:13.746Z,20.44
2023-03-19T12:18:49.256Z,20.63
2023-03-19T12:21:28.008Z,20.73
2023-03-19T12:24:19.837Z,20.84
2023-03-19T12:27:09.736Z,20.33
2023-03-19T12:29:56.969Z,21.29
2023-03-19T12:32:58.108Z,21.01
2023-03-19T12:35:31.837Z,20.70
2023-03-19T12:38:07.152Z,20.17
2023-03-19T12:40:58.420Z,19.48
2023-03-19T12:43:49.429Z,19.46
2023-03-19T12:46:32.172Z,19.53
2023-03-19T12:49:19.786Z,19.28
2023-03-19T12:51:57.109Z,18.72
2023-03-19T12:54:39.386Z,18.60
2023-03-19T12:57:23.494Z,18.40
2023-03-19T13:00:08.204Z,18.63
2023-03-19T13:02:40.987Z,18.76
2023-03-19T13:05:27.037Z,19.04
2023-03-19T13:08:02.314Z,19.51
2023-03-19T13:10:29.720Z,19.23
2023-03-19T13:12:57.052Z,18.91
2023-03-19T13:15:28.725Z,18.62
2023-03-19T13:18:17.081Z,18.59
2023-03-19T13:20:56.922Z,18.30
2023-03-19T13:23:35.051Z,18.14
2023-03-19T13:26:04.748Z,18.35
2023-03-19T13:28:35.009Z,18.35
2023-03-19T13:31:06.694Z,17.88
2023-03-19T13:33:38.719Z,18.16
2023-03-19T13:36:07.746Z,18.06
2023-03-19T13:38:40.037Z,18.13
2023-03-19T13:41:32.314Z,18.04
2023-03-19T13:44:00.006Z,17.89
2023-03-19T13:46:31.095Z,17.87
2023-03-19T13:49:25.382Z,18.05
2023-03-19T13:51:54.993Z,17.57
2023-03-19T13:54:32.706Z,17.78
2023-03-19T13:57:01.279Z,17.71
2023-03-19T13:59:29.836Z,17.60
2023-03-19T14:01:57.082Z,17.54
2023-03-19T14:04:30.681Z,17.47
2023-03-19T14:07:15.583Z,17.37
2023-03-19T14:09:43.423Z,17.60
2023-03-19T14:12:16.241Z,17.52
2023-03-19T14:14:49.047Z,17.55
2023-03-19T14:17:25.759Z,17.71
2023-03-19T14:19:54.276Z,17.59
2023-03-19T14:22:32.771Z,17.55
2023-03-19T14:25:17.948Z,17.57
2023-03-19T14:27:48.356Z,17.72
2023-03-19T14:30:25.512Z,17.56
2023-03-19T14:32:52.276Z,17.44
2023-03-19T14:35:22.694Z,17.50
2023-03-19T14:37:51.042Z,17.35
2023-03-19T14:40:20.997Z,17.27
2023-03-19T14:43:25.372Z,17.19
2023-03-19T14:46:01.567Z,17.30
2023-03-19T14:49:16.180Z,17.40
2023-03-19T14:51:54.772Z,17.38
2023-03-19T14:54:30.665Z,16.98
2023-03-19T14:56:57.687Z,16.86
2023-03-19T14:59:24.637Z,17.08
2023-03-19T15:01:54.213Z,17.30
2023-03-19T15:04:23.191Z,17.40
2023-03-19T15:06:54.424Z,17.28
2023-03-19T15:09:32.476Z,17.16
2023-03-19T15:12:20.224Z,17.11
2023-03-19T15:15:09.677Z,17.19
2023-03-19T15:17:39.302Z,17.24
2023-03-19T15:20:22.593Z,17.24
2023-03-19T15:23:01.218Z,16.80
2023-03-19T15:25:28.438Z,16.84
2023-03-19T15:28:09.193Z,16.84
2023-03-19T15:30:50.449Z,16.96
2023-03-19T15:33:38.806Z,16.82
2023-03-19T15:36:09.139Z,16.71
2023-03-19T15:38:40.864Z,16.66
2023-03-19T15:41:08.799Z,16.69
2023-03-19T15:43:38.150Z,16.69
2023-03-19T15:46:05.744Z,16.64
2023-03-19T15:48:42.124Z,16.43
2023-03-19T15:51:10.061Z,16.25
2023-03-19T15:53:37.447Z,16.19
2023-03-19T15:56:04.944Z,16.11
2023-03-19T15:58:36.373Z,15.94
2023-03-19T16:01:07.097Z,15.77
2023-03-19T16:03:42.250Z,15.71
2023-03-19T16:06:21.332Z,15.71
2023-03-19T16:08:53.420Z,15.64
2023-03-19T16:11:28.377Z,15.66
2023-03-19T16:14:00.096Z,15.57
2023-03-19T16:16:29.800Z,15.46
2023-03-19T16:18:57.638Z,15.34
2023-03-19T16:21:41.290Z,15.36
2023-03-19T16:24:27.503Z,15.29
2023-03-19T16:26:54.159Z,15.27
2023-03-19T16:29:24.623Z,15.12
2023-03-19T16:31:59.777Z,15.08
2023-03-19T16:34:36.537Z,15.04
2023-03-19T16:37:24.963Z,14.82
2023-03-19T16:39:56.920Z,14.71
2023-03-19T16:42:38.422Z,14.62
2023-03-19T16:45:18.183Z,14.61
2023-03-19T16:48:05.276Z,14.42
2023-03-19T16:50:40.035Z,14.37
2023-03-19T16:53:21.639Z,14.25
2023-03-19T16:55:48.481Z,14.20
2023-03-19T16:58:16.883Z,14.05
2023-03-19T17:00:44.361Z,14.09
2023-03-19T17:03:13.140Z,14.00
2023-03-19T17:05:39.689Z,13.89
2023-03-19T17:08:06.105Z,13.86
2023-03-19T17:10:33.464Z,13.64
2023-03-19T17:13:00.594Z,13.62
2023-03-19T17:15:39.190Z,13.60
2023-03-19T17:18:23.470Z,13.57
2023-03-19T17:20:56.761Z,13.45
2023-03-19T17:23:26.830Z,13.38
2023-03-19T17:25:54.120Z,13.36
2023-03-19T17:28:20.654Z,13.28
2023-03-19T17:30:47.356Z,13.27
2023-03-19T17:33:24.293Z,13.16
2023-03-19T17:35:51.988Z,13.11
2023-03-19T17:38:19.597Z,13.20
2023-03-19T17:40:47.047Z,13.12
2023-03-19T17:43:14.952Z,13.17
2023-03-19T17:45:45.876Z,13.11
2023-03-19T17:48:19.934Z,13.03
2023-03-19T17:50:46.438Z,13.00
2023-03-19T17:53:14.488Z,13.00
2023-03-19T17:55:41.041Z,13.10
2023-03-19T17:58:15.735Z,13.16
2023-03-19T18:00:42.401Z,12.82
2023-03-19T18:03:13.055Z,12.68
2023-03-19T18:05:40.257Z,12.60
2023-03-19T18:08:07.128Z,12.54
2023-03-19T18:10:34.657Z,12.52
2023-03-19T18:13:01.725Z,12.44
2023-03-19T18:15:29.749Z,12.41
2023-03-19T18:17:58.200Z,12.38
2023-03-19T18:20:27.355Z,12.31
2023-03-19T18:22:53.901Z,12.29
2023-03-19T18:25:23.778Z,12.23
2023-03-19T18:27:50.798Z,12.15
2023-03-19T18:30:19.429Z,12.16
2023-03-19T18:32:49.777Z,12.09
2023-03-19T18:35:22.914Z,12.06
2023-03-19T18:37:51.463Z,12.09
2023-03-19T18:40:21.205Z,12.08
2023-03-19T18:42:48.227Z,12.03
2023-03-19T18:45:17.242Z,12.06
2023-03-19T18:47:45.047Z,12.03
2023-03-19T18:50:16.740Z,12.04
2023-03-19T18:52:45.293Z,11.89
2023-03-19T18:55:12.843Z,11.74
2023-03-19T18:57:53.452Z,11.67
2023-03-19T19:00:23.969Z,11.50
2023-03-19T19:02:51.107Z,11.43
2023-03-19T19:05:19.417Z,11.35
2023-03-19T19:07:46.150Z,11.37
2023-03-19T19:10:12.797Z,11.41
2023-03-19T19:12:44.350Z,11.42
2023-03-19T19:15:25.888Z,11.60
2023-03-19T19:17:53.144Z,11.65
2023-03-19T19:20:22.131Z,11.66
2023-03-19T19:22:51.308Z,11.62
2023-03-19T19:25:23.212Z,11.54
2023-03-19T19:27:58.631Z,11.46
2023-03-19T19:30:25.202Z,11.48
2023-03-19T19:32:51.734Z,11.43
2023-03-19T19:35:27.467Z,11.44
2023-03-19T19:37:55.412Z,11.41
2023-03-19T19:40:27.533Z,11.46
2023-03-19T19:42:54.193Z,11.35
2023-03-19T19:45:32.923Z,11.38
2023-03-19T19:48:00.038Z,11.45
2023-03-19T19:50:27.729Z,11.43
2023-03-19T19:52:55.522Z,11.43
2023-03-19T19:55:24.295Z,11.47
2023-03-19T19:57:51.380Z,11.38
2023-03-19T20:00:23.766Z,11.44
2023-03-19T20:02:50.899Z,11.35
2023-03-19T20:05:25.886Z,11.32
2023-03-19T20:07:54.100Z,11.35
2023-03-19T20:10:21.683Z,11.34
2023-03-19T20:12:51.321Z,11.41
2023-03-19T20:15:23.634Z,11.32
2023-03-19T20:17:51.840Z,11.32
2023-03-19T20:20:24.820Z,11.38
2023-03-19T20:22:51.694Z,11.38
2023-03-19T20:25:19.810Z,11.24
2023-03-19T20:27:47.122Z,11.17
2023-03-19T20:30:38.676Z,11.20
2023-03-19T20:33:06.142Z,11.19
2023-03-19T20:35:35.647Z,11.23
2023-03-19T20:38:04.735Z,11.21
2023-03-19T20:40:38.116Z,11.20
2023-03-19T20:43:05.842Z,11.17
2023-03-19T20:45:37.700Z,11.17
2023-03-19T20:48:05.110Z,11.15
2023-03-19T20:50:33.127Z,11.12
2023-03-19T20:53:03.558Z,11.10
2023-03-19T20:55:32.372Z,11.06
2023-03-19T20:57:59.894Z,11.04
2023-03-19T21:00:31.943Z,10.97
2023-03-19T21:02:59.838Z,10.85
2023-03-19T21:05:34.919Z,10.75
2023-03-19T21:08:03.339Z,10.68
2023-03-19T21:10:42.308Z,10.70
2023-03-19T21:13:13.348Z,10.64
2023-03-19T21:15:40.310Z,10.54
2023-03-19T21:18:07.329Z,10.50
2023-03-19T21:20:34.466Z,10.51
2023-03-19T21:23:14.526Z,10.44
2023-03-19T21:25:41.214Z,10.37
2023-03-19T21:28:17.510Z,10.36
2023-03-19T21:30:45.860Z,10.26
2023-03-19T21:33:28.388Z,10.25
2023-03-19T21:35:56.358Z,10.27
2023-03-19T21:38:23.431Z,10.18
2023-03-19T21:40:57.909Z,10.10
2023-03-19T21:43:33.916Z,10.01
2023-03-19T21:46:13.772Z,9.96
2023-03-19T21:48:44.098Z,9.90
2023-03-19T21:51:16.936Z,9.83
2023-03-19T21:53:45.602Z,9.78
2023-03-19T21:56:33.402Z,9.64
2023-03-19T21:59:02.153Z,9.63
2023-03-19T22:01:28.581Z,9.64
2023-03-19T22:03:57.602Z,9.68
2023-03-19T22:06:25.113Z,9.53
2023-03-19T22:08:53.837Z,9.42
2023-03-19T22:11:27.099Z,9.40
2023-03-19T22:13:54.614Z,9.34
2023-03-19T22:16:23.924Z,9.38
2023-03-19T22:18:52.220Z,9.35
2023-03-19T22:21:21.535Z,9.29
2023-03-19T22:23:48.894Z,9.23
2023-03-19T22:26:36.834Z,9.29
2023-03-19T22:29:25.355Z,9.28
2023-03-19T22:31:52.981Z,9.22
2023-03-19T22:34:22.500Z,9.21
2023-03-19T22:36:49.337Z,9.37
2023-03-19T22:39:15.979Z,9.33
2023-03-19T22:41:45.494Z,9.30
2023-03-19T22:44:19.284Z,9.54
2023-03-19T22:46:46.322Z,9.54
2023-03-19T22:49:13.825Z,9.51
2023-03-19T22:51:40.305Z,9.55
2023-03-19T22:54:07.001Z,9.58
2023-03-19T22:56:33.481Z,9.53
2023-03-19T22:59:00.011Z,9.53
2023-03-19T23:01:30.955Z,9.53
2023-03-19T23:03:57.962Z,9.54
2023-03-19T23:06:30.711Z,9.57
2023-03-19T23:08:57.770Z,9.58
2023-03-19T23:11:24.450Z,9.65
2023-03-19T23:13:51.031Z,9.70
2023-03-19T23:16:22.338Z,9.73
2023-03-19T23:18:49.765Z,9.89
2023-03-19T23:21:17.930Z,9.94
2023-03-19T23:23:44.955Z,10.04
2023-03-19T23:26:37.915Z,9.92
2023-03-19T23:29:06.091Z,9.93
2023-03-19T23:31:34.356Z,9.84
2023-03-19T23:34:00.899Z,9.90
2023-03-19T23:36:27.753Z,9.90
2023-03-19T23:38:54.597Z,9.81
2023-03-19T23:41:26.095Z,9.76
2023-03-19T23:43:52.989Z,9.83
2023-03-19T23:46:20.703Z,9.89
2023-03-19T23:48:47.614Z,9.89
2023-03-19T23:51:15.359Z,9.84
2023-03-19T23:53:42.892Z,9.72
2023-03-19T23:56:23.895Z,9.66
2023-03-19T23:58:51.540Z,9.64
